sensor_id;sensor_type;location;lat;lon;timestamp;P1;durP1;ratioP1;P2;durP2;ratioP2
58466;SDS011;44255;49.244;7.726;2022-09-30T03:46:56;13.70;;;1.55;;
58466;SDS011;44255;49.244;7.726;2022-09-30T03:49:27;15.75;;;1.80;;
58466;SDS011;44255;49.244;7.726;2022-09-30T03:51:56;11.43;;;3.33;;
58466;SDS011;44255;49.244;7.726;2022-09-30T03:54:23;16.05;;;2.13;;
58466;SDS011;44255;49.244;7.726;2022-09-30T03:56:49;36.70;;;2.00;;
58466;SDS011;44255;49.244;7.726;2022-09-30T03:59:24;52.77;;;2.43;;
58466;SDS011;44255;49.244;7.726;2022-09-30T04:01:52;45.63;;;2.10;;
58466;SDS011;44255;49.244;7.726;2022-09-30T04:04:18;77.10;;;2.83;;
58466;SDS011;44255;49.244;7.726;2022-09-30T04:06:43;92.82;;;3.08;;
58466;SDS011;44255;49.244;7.726;2022-09-30T04:09:09;27.85;;;2.30;;
58466;SDS011;44255;49.244;7.726;2022-09-30T04:11:35;38.70;;;2.22;;
58466;SDS011;44255;49.244;7.726;2022-09-30T04:14:00;44.33;;;1.97;;
58466;SDS011;44255;49.244;7.726;2022-09-30T04:16:28;6.97;;;1.10;;
58466;SDS011;44255;49.244;7.726;2022-09-30T04:18:54;19.48;;;1.75;;
58466;SDS011;44255;49.244;7.726;2022-09-30T04:21:21;7.95;;;2.53;;
58466;SDS011;44255;49.244;7.726;2022-09-30T04:23:46;14.77;;;3.03;;
58466;SDS011;44255;49.244;7.726;2022-09-30T04:26:12;19.63;;;4.67;;
58466;SDS011;44255;49.244;7.726;2022-09-30T04:28:39;17.88;;;4.68;;
58466;SDS011;44255;49.244;7.726;2022-09-30T04:31:05;8.23;;;3.67;;
58466;SDS011;44255;49.244;7.726;2022-09-30T04:33:30;23.40;;;3.15;;
58466;SDS011;44255;49.244;7.726;2022-09-30T04:35:57;32.78;;;3.60;;
58466;SDS011;44255;49.244;7.726;2022-09-30T04:38:23;11.80;;;3.40;;
58466;SDS011;44255;49.244;7.726;2022-09-30T04:40:50;41.35;;;3.50;;
58466;SDS011;44255;49.244;7.726;2022-09-30T04:43:19;23.20;;;3.80;;
58466;SDS011;44255;49.244;7.726;2022-09-30T04:45:46;73.65;;;3.45;;
58466;SDS011;44255;49.244;7.726;2022-09-30T04:48:12;44.63;;;3.60;;
58466;SDS011;44255;49.244;7.726;2022-09-30T04:50:38;42.65;;;4.22;;
58466;SDS011;44255;49.244;7.726;2022-09-30T04:53:04;33.55;;;3.90;;
58466;SDS011;44255;49.244;7.726;2022-09-30T04:55:29;19.07;;;4.60;;
58466;SDS011;44255;49.244;7.726;2022-09-30T04:57:54;43.13;;;5.37;;
58466;SDS011;44255;49.244;7.726;2022-09-30T05:00:20;24.30;;;4.22;;
58466;SDS011;44255;49.244;7.726;2022-09-30T05:02:45;36.37;;;4.27;;
58466;SDS011;44255;49.244;7.726;2022-09-30T05:05:11;47.72;;;4.80;;
58466;SDS011;44255;49.244;7.726;2022-09-30T05:07:36;30.40;;;4.10;;
58466;SDS011;44255;49.244;7.726;2022-09-30T05:10:02;39.93;;;4.80;;
58466;SDS011;44255;49.244;7.726;2022-09-30T05:12:27;33.47;;;4.78;;
58466;SDS011;44255;49.244;7.726;2022-09-30T05:14:52;9.70;;;5.43;;
58466;SDS011;44255;49.244;7.726;2022-09-30T05:17:17;37.37;;;4.40;;
58466;SDS011;44255;49.244;7.726;2022-09-30T05:19:43;27.23;;;3.93;;
58466;SDS011;44255;49.244;7.726;2022-09-30T05:22:08;45.70;;;4.03;;
58466;SDS011;44255;49.244;7.726;2022-09-30T05:24:33;16.60;;;3.47;;
58466;SDS011;44255;49.244;7.726;2022-09-30T05:26:58;23.00;;;3.30;;
58466;SDS011;44255;49.244;7.726;2022-09-30T05:29:25;14.15;;;3.63;;
58466;SDS011;44255;49.244;7.726;2022-09-30T05:31:51;12.77;;;3.42;;
58466;SDS011;44255;49.244;7.726;2022-09-30T05:34:16;22.70;;;3.30;;
58466;SDS011;44255;49.244;7.726;2022-09-30T05:36:42;41.77;;;3.60;;
58466;SDS011;44255;49.244;7.726;2022-09-30T05:39:08;27.20;;;3.88;;
58466;SDS011;44255;49.244;7.726;2022-09-30T05:43:59;8.15;;;3.72;;
58466;SDS011;44255;49.244;7.726;2022-09-30T05:46:25;15.57;;;3.80;;
58466;SDS011;44255;49.244;7.726;2022-09-30T05:48:51;20.95;;;3.90;;
58466;SDS011;44255;49.244;7.726;2022-09-30T05:51:18;12.55;;;3.25;;
58466;SDS011;44255;49.244;7.726;2022-09-30T05:53:43;9.40;;;2.80;;
58466;SDS011;44255;49.244;7.726;2022-09-30T05:56:09;17.43;;;4.30;;
58466;SDS011;44255;49.244;7.726;2022-09-30T05:58:35;11.15;;;4.40;;
58466;SDS011;44255;49.244;7.726;2022-09-30T06:01:02;10.10;;;3.85;;
58466;SDS011;44255;49.244;7.726;2022-09-30T06:03:31;7.00;;;3.60;;
58466;SDS011;44255;49.244;7.726;2022-09-30T06:05:56;11.90;;;5.10;;
58466;SDS011;44255;49.244;7.726;2022-09-30T06:08:21;9.60;;;3.87;;
58466;SDS011;44255;49.244;7.726;2022-09-30T06:10:47;11.80;;;4.78;;
58466;SDS011;44255;49.244;7.726;2022-09-30T06:13:13;11.75;;;5.00;;
58466;SDS011;44255;49.244;7.726;2022-09-30T06:15:38;14.43;;;5.28;;
58466;SDS011;44255;49.244;7.726;2022-09-30T06:18:05;34.67;;;5.82;;
58466;SDS011;44255;49.244;7.726;2022-09-30T06:20:32;15.85;;;4.25;;
58466;SDS011;44255;49.244;7.726;2022-09-30T06:22:58;6.63;;;4.45;;
58466;SDS011;44255;49.244;7.726;2022-09-30T06:25:24;6.03;;;3.83;;
58466;SDS011;44255;49.244;7.726;2022-09-30T06:27:49;6.82;;;3.97;;
58466;SDS011;44255;49.244;7.726;2022-09-30T06:30:15;9.83;;;5.13;;
58466;SDS011;44255;49.244;7.726;2022-09-30T06:32:40;5.85;;;4.35;;
58466;SDS011;44255;49.244;7.726;2022-09-30T06:35:06;3.92;;;2.90;;
58466;SDS011;44255;49.244;7.726;2022-09-30T06:40:00;4.65;;;3.70;;
58466;SDS011;44255;49.244;7.726;2022-09-30T06:42:26;8.27;;;4.70;;
58466;SDS011;44255;49.244;7.726;2022-09-30T06:44:51;11.20;;;6.00;;
58466;SDS011;44255;49.244;7.726;2022-09-30T06:47:16;4.50;;;2.63;;
58466;SDS011;44255;49.244;7.726;2022-09-30T06:49:43;38.55;;;5.13;;
58466;SDS011;44255;49.244;7.726;2022-09-30T06:52:08;9.52;;;4.47;;
58466;SDS011;44255;49.244;7.726;2022-09-30T06:54:36;16.90;;;6.38;;
58466;SDS011;44255;49.244;7.726;2022-09-30T06:57:02;19.27;;;8.10;;
58466;SDS011;44255;49.244;7.726;2022-09-30T06:59:27;51.47;;;10.97;;
58466;SDS011;44255;49.244;7.726;2022-09-30T07:01:52;32.17;;;10.33;;
58466;SDS011;44255;49.244;7.726;2022-09-30T07:04:19;7.18;;;4.68;;
58466;SDS011;44255;49.244;7.726;2022-09-30T07:06:45;14.98;;;3.72;;
58466;SDS011;44255;49.244;7.726;2022-09-30T07:09:10;13.65;;;3.80;;
58466;SDS011;44255;49.244;7.726;2022-09-30T07:11:37;9.48;;;2.33;;
58466;SDS011;44255;49.244;7.726;2022-09-30T07:14:03;27.45;;;2.10;;
58466;SDS011;44255;49.244;7.726;2022-09-30T07:16:29;21.52;;;1.90;;
58466;SDS011;44255;49.244;7.726;2022-09-30T07:21:22;20.03;;;4.67;;
58466;SDS011;44255;49.244;7.726;2022-09-30T07:23:47;95.17;;;7.70;;
58466;SDS011;44255;49.244;7.726;2022-09-30T07:26:16;41.13;;;6.38;;
58466;SDS011;44255;49.244;7.726;2022-09-30T07:28:43;35.03;;;8.07;;
58466;SDS011;44255;49.244;7.726;2022-09-30T07:31:11;14.27;;;7.43;;
58466;SDS011;44255;49.244;7.726;2022-09-30T07:33:39;9.88;;;5.47;;
58466;SDS011;44255;49.244;7.726;2022-09-30T07:36:05;13.07;;;2.13;;
58466;SDS011;44255;49.244;7.726;2022-09-30T07:38:32;13.38;;;1.70;;
58466;SDS011;44255;49.244;7.726;2022-09-30T07:41:10;11.85;;;2.67;;
58466;SDS011;44255;49.244;7.726;2022-09-30T07:43:37;3.45;;;1.23;;
58466;SDS011;44255;49.244;7.726;2022-09-30T07:46:05;33.13;;;1.90;;
58466;SDS011;44255;49.244;7.726;2022-09-30T07:48:33;19.98;;;1.85;;
58466;SDS011;44255;49.244;7.726;2022-09-30T07:51:15;1.65;;;1.55;;
58466;SDS011;44255;49.244;7.726;2022-09-30T07:53:41;5.63;;;1.42;;
58466;SDS011;44255;49.244;7.726;2022-09-30T07:56:09;5.22;;;3.05;;
58466;SDS011;44255;49.244;7.726;2022-09-30T07:58:34;11.35;;;6.97;;
58466;SDS011;44255;49.244;7.726;2022-09-30T08:01:00;12.93;;;7.32;;
58466;SDS011;44255;49.244;7.726;2022-09-30T08:03:26;12.75;;;6.85;;
58466;SDS011;44255;49.244;7.726;2022-09-30T08:05:51;12.27;;;6.27;;
58466;SDS011;44255;49.244;7.726;2022-09-30T08:08:17;12.23;;;6.47;;
58466;SDS011;44255;49.244;7.726;2022-09-30T08:10:42;9.27;;;5.85;;
58466;SDS011;44255;49.244;7.726;2022-09-30T08:13:08;9.87;;;5.43;;
58466;SDS011;44255;49.244;7.726;2022-09-30T08:15:34;9.07;;;5.82;;
58466;SDS011;44255;49.244;7.726;2022-09-30T08:17:59;7.38;;;5.10;;
58466;SDS011;44255;49.244;7.726;2022-09-30T08:20:25;7.55;;;4.65;;
58466;SDS011;44255;49.244;7.726;2022-09-30T08:22:51;4.85;;;3.55;;
58466;SDS011;44255;49.244;7.726;2022-09-30T08:25:23;9.23;;;3.78;;
58466;SDS011;44255;49.244;7.726;2022-09-30T08:27:49;5.07;;;2.15;;
58466;SDS011;44255;49.244;7.726;2022-09-30T08:30:15;1.27;;;1.15;;
58466;SDS011;44255;49.244;7.726;2022-09-30T08:32:40;1.05;;;0.90;;
58466;SDS011;44255;49.244;7.726;2022-09-30T08:35:06;1.30;;;1.20;;
58466;SDS011;44255;49.244;7.726;2022-09-30T08:37:31;1.00;;;0.90;;
58466;SDS011;44255;49.244;7.726;2022-09-30T08:39:56;2.03;;;1.13;;
58466;SDS011;44255;49.244;7.726;2022-09-30T08:53:14;1.48;;;1.30;;
58466;SDS011;44255;49.244;7.726;2022-09-30T08:55:47;3.40;;;1.88;;
58466;SDS011;44255;49.244;7.726;2022-09-30T08:58:25;2.75;;;1.30;;
58466;SDS011;44255;49.244;7.726;2022-09-30T09:00:53;1.40;;;1.27;;
58466;SDS011;44255;49.244;7.726;2022-09-30T09:03:28;2.90;;;1.52;;
58466;SDS011;44255;49.244;7.726;2022-09-30T09:11:12;2.33;;;1.38;;
58466;SDS011;44255;49.244;7.726;2022-09-30T09:16:35;2.40;;;1.47;;
58466;SDS011;44255;49.244;7.726;2022-09-30T09:19:09;4.22;;;1.48;;
58466;SDS011;44255;49.244;7.726;2022-09-30T09:24:14;1.42;;;1.23;;
58466;SDS011;44255;49.244;7.726;2022-09-30T09:26:42;1.83;;;1.40;;
58466;SDS011;44255;49.244;7.726;2022-09-30T09:29:19;4.85;;;1.67;;
58466;SDS011;44255;49.244;7.726;2022-09-30T09:31:52;4.40;;;1.90;;
58466;SDS011;44255;49.244;7.726;2022-09-30T09:34:18;4.22;;;2.50;;
58466;SDS011;44255;49.244;7.726;2022-09-30T09:42:44;4.68;;;1.70;;
58466;SDS011;44255;49.244;7.726;2022-09-30T09:45:28;5.28;;;2.13;;
58466;SDS011;44255;49.244;7.726;2022-09-30T09:48:08;3.38;;;1.92;;
58466;SDS011;44255;49.244;7.726;2022-09-30T09:50:38;3.55;;;2.03;;
58466;SDS011;44255;49.244;7.726;2022-09-30T09:53:19;2.88;;;1.88;;
58466;SDS011;44255;49.244;7.726;2022-09-30T09:56:14;3.42;;;2.10;;
58466;SDS011;44255;49.244;7.726;2022-09-30T09:59:02;5.10;;;2.20;;
58466;SDS011;44255;49.244;7.726;2022-09-30T10:01:39;3.53;;;1.98;;
58466;SDS011;44255;49.244;7.726;2022-09-30T10:04:38;3.03;;;1.85;;
58466;SDS011;44255;49.244;7.726;2022-09-30T10:07:14;4.37;;;1.80;;
58466;SDS011;44255;49.244;7.726;2022-09-30T10:09:40;4.87;;;1.67;;
58466;SDS011;44255;49.244;7.726;2022-09-30T10:17:16;3.83;;;1.70;;
58466;SDS011;44255;49.244;7.726;2022-09-30T10:19:46;2.53;;;1.30;;
58466;SDS011;44255;49.244;7.726;2022-09-30T10:27:26;4.07;;;1.70;;
58466;SDS011;44255;49.244;7.726;2022-09-30T10:29:53;4.05;;;1.67;;
58466;SDS011;44255;49.244;7.726;2022-09-30T10:32:18;4.88;;;2.30;;
58466;SDS011;44255;49.244;7.726;2022-09-30T10:34:45;7.90;;;2.10;;
58466;SDS011;44255;49.244;7.726;2022-09-30T10:37:14;2.45;;;1.65;;
58466;SDS011;44255;49.244;7.726;2022-09-30T10:39:43;2.60;;;1.70;;
58466;SDS011;44255;49.244;7.726;2022-09-30T10:42:24;2.90;;;1.60;;
58466;SDS011;44255;49.244;7.726;2022-09-30T10:44:53;3.58;;;1.63;;
58466;SDS011;44255;49.244;7.726;2022-09-30T10:47:26;5.03;;;1.70;;
58466;SDS011;44255;49.244;7.726;2022-09-30T10:50:09;2.53;;;1.52;;
58466;SDS011;44255;49.244;7.726;2022-09-30T10:52:45;4.97;;;1.65;;
58466;SDS011;44255;49.244;7.726;2022-09-30T10:57:44;4.97;;;1.70;;
58466;SDS011;44255;49.244;7.726;2022-09-30T11:00:14;2.60;;;1.40;;
58466;SDS011;44255;49.244;7.726;2022-09-30T11:05:22;6.25;;;1.60;;
58466;SDS011;44255;49.244;7.726;2022-09-30T11:13:34;5.70;;;1.67;;
58466;SDS011;44255;49.244;7.726;2022-09-30T11:16:08;3.67;;;1.70;;
58466;SDS011;44255;49.244;7.726;2022-09-30T11:22:08;2.85;;;1.50;;
58466;SDS011;44255;49.244;7.726;2022-09-30T11:24:52;3.60;;;1.75;;
58466;SDS011;44255;49.244;7.726;2022-09-30T11:30:11;5.15;;;1.77;;
58466;SDS011;44255;49.244;7.726;2022-09-30T11:41:06;2.80;;;1.60;;
58466;SDS011;44255;49.244;7.726;2022-09-30T11:49:25;3.80;;;1.80;;
58466;SDS011;44255;49.244;7.726;2022-09-30T11:52:07;6.45;;;1.70;;
58466;SDS011;44255;49.244;7.726;2022-09-30T11:55:20;2.90;;;1.85;;
58466;SDS011;44255;49.244;7.726;2022-09-30T11:57:48;6.75;;;2.00;;
58466;SDS011;44255;49.244;7.726;2022-09-30T12:00:21;4.18;;;1.70;;
58466;SDS011;44255;49.244;7.726;2022-09-30T12:02:52;3.37;;;1.70;;
58466;SDS011;44255;49.244;7.726;2022-09-30T12:08:19;3.42;;;2.20;;
58466;SDS011;44255;49.244;7.726;2022-09-30T12:10:50;6.28;;;2.15;;
58466;SDS011;44255;49.244;7.726;2022-09-30T12:13:21;11.05;;;4.70;;
58466;SDS011;44255;49.244;7.726;2022-09-30T12:16:00;4.00;;;2.40;;
58466;SDS011;44255;49.244;7.726;2022-09-30T12:18:38;4.30;;;1.50;;
58466;SDS011;44255;49.244;7.726;2022-09-30T12:21:30;4.57;;;1.77;;
58466;SDS011;44255;49.244;7.726;2022-09-30T12:24:01;5.32;;;2.70;;
58466;SDS011;44255;49.244;7.726;2022-09-30T12:26:38;8.85;;;4.22;;
58466;SDS011;44255;49.244;7.726;2022-09-30T12:29:06;9.13;;;4.28;;
58466;SDS011;44255;49.244;7.726;2022-09-30T12:32:22;3.95;;;1.63;;
58466;SDS011;44255;49.244;7.726;2022-09-30T12:43:23;4.90;;;1.50;;
58466;SDS011;44255;49.244;7.726;2022-09-30T12:48:27;10.70;;;4.35;;
58466;SDS011;44255;49.244;7.726;2022-09-30T12:50:59;10.95;;;5.80;;
58466;SDS011;44255;49.244;7.726;2022-09-30T12:56:05;6.68;;;4.05;;
58466;SDS011;44255;49.244;7.726;2022-09-30T12:58:44;7.10;;;3.00;;
58466;SDS011;44255;49.244;7.726;2022-09-30T13:01:26;6.97;;;4.00;;
58466;SDS011;44255;49.244;7.726;2022-09-30T13:06:25;5.13;;;3.40;;
58466;SDS011;44255;49.244;7.726;2022-09-30T13:14:23;2.13;;;1.25;;
58466;SDS011;44255;49.244;7.726;2022-09-30T13:27:31;2.95;;;1.35;;
58466;SDS011;44255;49.244;7.726;2022-09-30T13:32:41;2.07;;;1.00;;
58466;SDS011;44255;49.244;7.726;2022-09-30T13:35:55;1.80;;;0.98;;
58466;SDS011;44255;49.244;7.726;2022-09-30T13:43:29;3.38;;;1.10;;
58466;SDS011;44255;49.244;7.726;2022-09-30T13:46:34;12.85;;;5.75;;
58466;SDS011;44255;49.244;7.726;2022-09-30T13:49:18;22.42;;;7.95;;
58466;SDS011;44255;49.244;7.726;2022-09-30T13:51:49;4.70;;;1.60;;
58466;SDS011;44255;49.244;7.726;2022-09-30T13:54:24;6.38;;;1.30;;
58466;SDS011;44255;49.244;7.726;2022-09-30T13:56:55;5.95;;;1.13;;
58466;SDS011;44255;49.244;7.726;2022-09-30T14:15:22;4.75;;;1.40;;
58466;SDS011;44255;49.244;7.726;2022-09-30T14:23:15;4.50;;;1.17;;
58466;SDS011;44255;49.244;7.726;2022-09-30T14:25:54;0.80;;;0.80;;
58466;SDS011;44255;49.244;7.726;2022-09-30T14:28:37;1.30;;;0.80;;
58466;SDS011;44255;49.244;7.726;2022-09-30T14:31:10;4.07;;;1.10;;
58466;SDS011;44255;49.244;7.726;2022-09-30T14:33:38;1.10;;;1.00;;
58466;SDS011;44255;49.244;7.726;2022-09-30T14:36:10;2.03;;;1.10;;
58466;SDS011;44255;49.244;7.726;2022-09-30T14:38:41;3.53;;;1.20;;
58466;SDS011;44255;49.244;7.726;2022-09-30T14:41:13;1.80;;;0.90;;
58466;SDS011;44255;49.244;7.726;2022-09-30T14:43:42;3.58;;;1.20;;
58466;SDS011;44255;49.244;7.726;2022-09-30T14:46:13;1.90;;;1.10;;
58466;SDS011;44255;49.244;7.726;2022-09-30T14:48:57;3.03;;;1.20;;
58466;SDS011;44255;49.244;7.726;2022-09-30T14:51:25;2.30;;;1.00;;
58466;SDS011;44255;49.244;7.726;2022-09-30T14:53:59;3.08;;;1.00;;
58466;SDS011;44255;49.244;7.726;2022-09-30T14:56:29;3.25;;;1.27;;
58466;SDS011;44255;49.244;7.726;2022-09-30T14:58:57;3.45;;;1.88;;
58466;SDS011;44255;49.244;7.726;2022-09-30T15:01:28;3.00;;;1.50;;
58466;SDS011;44255;49.244;7.726;2022-09-30T15:04:03;13.30;;;6.88;;
58466;SDS011;44255;49.244;7.726;2022-09-30T15:06:35;4.18;;;2.40;;
58466;SDS011;44255;49.244;7.726;2022-09-30T15:09:05;5.13;;;2.60;;
58466;SDS011;44255;49.244;7.726;2022-09-30T15:11:38;7.50;;;2.42;;
58466;SDS011;44255;49.244;7.726;2022-09-30T15:14:05;4.30;;;2.90;;
58466;SDS011;44255;49.244;7.726;2022-09-30T15:16:42;3.92;;;1.67;;
58466;SDS011;44255;49.244;7.726;2022-09-30T15:19:25;2.40;;;1.40;;
58466;SDS011;44255;49.244;7.726;2022-09-30T15:21:53;2.03;;;0.93;;
58466;SDS011;44255;49.244;7.726;2022-09-30T15:24:21;3.55;;;1.10;;
58466;SDS011;44255;49.244;7.726;2022-09-30T15:26:48;3.10;;;1.00;;
58466;SDS011;44255;49.244;7.726;2022-09-30T15:29:16;35.72;;;23.42;;
58466;SDS011;44255;49.244;7.726;2022-09-30T15:31:45;5.22;;;2.60;;
58466;SDS011;44255;49.244;7.726;2022-09-30T15:34:17;3.60;;;1.20;;
58466;SDS011;44255;49.244;7.726;2022-09-30T15:36:46;2.42;;;1.50;;
58466;SDS011;44255;49.244;7.726;2022-09-30T15:39:23;5.70;;;1.20;;
58466;SDS011;44255;49.244;7.726;2022-09-30T15:42:17;3.90;;;2.10;;
58466;SDS011;44255;49.244;7.726;2022-09-30T15:44:59;12.63;;;6.10;;
58466;SDS011;44255;49.244;7.726;2022-09-30T15:47:26;8.60;;;3.25;;
58466;SDS011;44255;49.244;7.726;2022-09-30T15:49:52;7.93;;;1.80;;
58466;SDS011;44255;49.244;7.726;2022-09-30T15:52:28;3.83;;;1.47;;
58466;SDS011;44255;49.244;7.726;2022-09-30T15:54:57;11.27;;;5.32;;
58466;SDS011;44255;49.244;7.726;2022-09-30T16:03:45;7.80;;;3.00;;
58466;SDS011;44255;49.244;7.726;2022-09-30T16:05:53;4.38;;;2.20;;
58466;SDS011;44255;49.244;7.726;2022-09-30T16:08:28;8.43;;;3.03;;
58466;SDS011;44255;49.244;7.726;2022-09-30T16:10:57;14.35;;;4.30;;
58466;SDS011;44255;49.244;7.726;2022-09-30T16:13:25;18.27;;;8.15;;
58466;SDS011;44255;49.244;7.726;2022-09-30T16:15:54;5.97;;;3.90;;
58466;SDS011;44255;49.244;7.726;2022-09-30T16:18:22;14.00;;;9.77;;
58466;SDS011;44255;49.244;7.726;2022-09-30T16:21:00;26.95;;;15.60;;
58466;SDS011;44255;49.244;7.726;2022-09-30T16:23:34;31.73;;;16.63;;
58466;SDS011;44255;49.244;7.726;2022-09-30T16:26:11;27.52;;;17.05;;
58466;SDS011;44255;49.244;7.726;2022-09-30T16:28:39;26.52;;;17.65;;
58466;SDS011;44255;49.244;7.726;2022-09-30T16:31:06;17.52;;;10.65;;
58466;SDS011;44255;49.244;7.726;2022-09-30T16:33:32;21.77;;;9.47;;
58466;SDS011;44255;49.244;7.726;2022-09-30T16:36:02;9.82;;;6.30;;
58466;SDS011;44255;49.244;7.726;2022-09-30T16:38:28;6.13;;;3.80;;
58466;SDS011;44255;49.244;7.726;2022-09-30T16:40:53;7.70;;;2.70;;
58466;SDS011;44255;49.244;7.726;2022-09-30T16:43:19;14.88;;;5.47;;
58466;SDS011;44255;49.244;7.726;2022-09-30T16:45:44;9.30;;;3.60;;
58466;SDS011;44255;49.244;7.726;2022-09-30T16:48:13;10.33;;;5.07;;
58466;SDS011;44255;49.244;7.726;2022-09-30T16:50:42;12.23;;;5.97;;
58466;SDS011;44255;49.244;7.726;2022-09-30T16:53:12;14.80;;;4.80;;
58466;SDS011;44255;49.244;7.726;2022-09-30T16:55:38;3.50;;;3.00;;
58466;SDS011;44255;49.244;7.726;2022-09-30T16:58:04;8.10;;;4.95;;
58466;SDS011;44255;49.244;7.726;2022-09-30T17:00:29;10.50;;;4.10;;
58466;SDS011;44255;49.244;7.726;2022-09-30T17:02:55;9.68;;;5.20;;
58466;SDS011;44255;49.244;7.726;2022-09-30T17:05:22;18.17;;;8.70;;
58466;SDS011;44255;49.244;7.726;2022-09-30T17:07:52;72.50;;;25.30;;
58466;SDS011;44255;49.244;7.726;2022-09-30T17:10:24;23.15;;;13.38;;
58466;SDS011;44255;49.244;7.726;2022-09-30T17:12:53;20.33;;;9.57;;
58466;SDS011;44255;49.244;7.726;2022-09-30T17:15:20;36.42;;;14.38;;
58466;SDS011;44255;49.244;7.726;2022-09-30T17:20:11;58.15;;;23.00;;
58466;SDS011;44255;49.244;7.726;2022-09-30T17:22:36;45.93;;;19.73;;
58466;SDS011;44255;49.244;7.726;2022-09-30T17:25:02;26.15;;;13.50;;
58466;SDS011;44255;49.244;7.726;2022-09-30T17:27:28;16.85;;;8.50;;
58466;SDS011;44255;49.244;7.726;2022-09-30T17:29:53;16.15;;;8.80;;
58466;SDS011;44255;49.244;7.726;2022-09-30T17:32:19;21.13;;;10.60;;
58466;SDS011;44255;49.244;7.726;2022-09-30T17:34:44;31.20;;;9.93;;
58466;SDS011;44255;49.244;7.726;2022-09-30T17:37:10;17.50;;;8.33;;
58466;SDS011;44255;49.244;7.726;2022-09-30T17:39:37;23.30;;;9.77;;
58466;SDS011;44255;49.244;7.726;2022-09-30T17:42:02;40.47;;;23.77;;
58466;SDS011;44255;49.244;7.726;2022-09-30T17:44:46;19.60;;;12.60;;
58466;SDS011;44255;49.244;7.726;2022-09-30T17:47:11;13.07;;;6.85;;
58466;SDS011;44255;49.244;7.726;2022-09-30T17:49:37;12.63;;;6.33;;
58466;SDS011;44255;49.244;7.726;2022-09-30T17:52:02;16.17;;;9.97;;
58466;SDS011;44255;49.244;7.726;2022-09-30T17:54:28;24.25;;;11.73;;
58466;SDS011;44255;49.244;7.726;2022-09-30T17:56:54;23.65;;;12.88;;
58466;SDS011;44255;49.244;7.726;2022-09-30T17:59:21;21.05;;;14.25;;
58466;SDS011;44255;49.244;7.726;2022-09-30T18:01:47;22.98;;;13.30;;
58466;SDS011;44255;49.244;7.726;2022-09-30T18:04:14;19.38;;;9.27;;
58466;SDS011;44255;49.244;7.726;2022-09-30T18:06:40;19.13;;;10.23;;
58466;SDS011;44255;49.244;7.726;2022-09-30T18:09:05;22.20;;;13.30;;
58466;SDS011;44255;49.244;7.726;2022-09-30T18:11:31;15.07;;;10.27;;
58466;SDS011;44255;49.244;7.726;2022-09-30T18:13:57;15.90;;;8.20;;
58466;SDS011;44255;49.244;7.726;2022-09-30T18:16:27;22.88;;;13.60;;
58466;SDS011;44255;49.244;7.726;2022-09-30T18:18:55;23.50;;;13.68;;
58466;SDS011;44255;49.244;7.726;2022-09-30T18:21:22;28.45;;;15.15;;
58466;SDS011;44255;49.244;7.726;2022-09-30T18:23:49;20.35;;;11.63;;
58466;SDS011;44255;49.244;7.726;2022-09-30T18:26:15;14.52;;;8.00;;
58466;SDS011;44255;49.244;7.726;2022-09-30T18:28:41;16.77;;;8.27;;
58466;SDS011;44255;49.244;7.726;2022-09-30T18:31:07;37.28;;;16.13;;
58466;SDS011;44255;49.244;7.726;2022-09-30T18:33:32;50.57;;;19.90;;
58466;SDS011;44255;49.244;7.726;2022-09-30T18:35:59;36.30;;;17.17;;
58466;SDS011;44255;49.244;7.726;2022-09-30T18:38:24;35.05;;;17.70;;
58466;SDS011;44255;49.244;7.726;2022-09-30T18:40:52;27.15;;;15.25;;
58466;SDS011;44255;49.244;7.726;2022-09-30T18:45:50;25.08;;;13.75;;
58466;SDS011;44255;49.244;7.726;2022-09-30T18:48:22;20.92;;;10.60;;
58466;SDS011;44255;49.244;7.726;2022-09-30T18:50:51;25.48;;;11.48;;
58466;SDS011;44255;49.244;7.726;2022-09-30T18:53:18;21.40;;;11.00;;
58466;SDS011;44255;49.244;7.726;2022-09-30T18:55:44;16.42;;;9.02;;
58466;SDS011;44255;49.244;7.726;2022-09-30T18:58:10;17.97;;;10.67;;
58466;SDS011;44255;49.244;7.726;2022-09-30T19:00:35;14.97;;;7.97;;
58466;SDS011;44255;49.244;7.726;2022-09-30T19:03:02;14.23;;;8.52;;
58466;SDS011;44255;49.244;7.726;2022-09-30T19:05:27;9.10;;;6.15;;
58466;SDS011;44255;49.244;7.726;2022-09-30T19:07:52;14.87;;;7.33;;
58466;SDS011;44255;49.244;7.726;2022-09-30T19:10:18;11.93;;;7.72;;
58466;SDS011;44255;49.244;7.726;2022-09-30T19:12:44;12.27;;;6.70;;
58466;SDS011;44255;49.244;7.726;2022-09-30T19:15:10;13.73;;;8.67;;
58466;SDS011;44255;49.244;7.726;2022-09-30T19:17:37;15.52;;;9.27;;
58466;SDS011;44255;49.244;7.726;2022-09-30T19:20:03;12.70;;;8.20;;
58466;SDS011;44255;49.244;7.726;2022-09-30T19:22:30;17.23;;;7.60;;
58466;SDS011;44255;49.244;7.726;2022-09-30T19:25:01;10.60;;;7.35;;
58466;SDS011;44255;49.244;7.726;2022-09-30T19:27:31;16.13;;;8.48;;
58466;SDS011;44255;49.244;7.726;2022-09-30T19:30:00;10.05;;;7.55;;
58466;SDS011;44255;49.244;7.726;2022-09-30T19:32:26;42.20;;;19.98;;
58466;SDS011;44255;49.244;7.726;2022-09-30T19:34:53;25.48;;;12.70;;
58466;SDS011;44255;49.244;7.726;2022-09-30T19:37:22;27.27;;;12.25;;
58466;SDS011;44255;49.244;7.726;2022-09-30T19:39:47;28.53;;;16.63;;
58466;SDS011;44255;49.244;7.726;2022-09-30T19:42:13;23.97;;;11.13;;
58466;SDS011;44255;49.244;7.726;2022-09-30T19:44:40;29.23;;;12.38;;
58466;SDS011;44255;49.244;7.726;2022-09-30T19:47:06;38.20;;;18.23;;
58466;SDS011;44255;49.244;7.726;2022-09-30T19:49:31;39.70;;;18.33;;
58466;SDS011;44255;49.244;7.726;2022-09-30T19:51:56;34.70;;;17.67;;
58466;SDS011;44255;49.244;7.726;2022-09-30T19:54:21;37.77;;;18.70;;
58466;SDS011;44255;49.244;7.726;2022-09-30T19:59:14;76.30;;;43.30;;
58466;SDS011;44255;49.244;7.726;2022-09-30T20:01:39;34.63;;;20.70;;
58466;SDS011;44255;49.244;7.726;2022-09-30T20:04:05;24.30;;;13.13;;
58466;SDS011;44255;49.244;7.726;2022-09-30T20:06:31;23.42;;;12.48;;
58466;SDS011;44255;49.244;7.726;2022-09-30T20:08:57;29.92;;;15.32;;
58466;SDS011;44255;49.244;7.726;2022-09-30T20:11:25;31.50;;;16.70;;
58466;SDS011;44255;49.244;7.726;2022-09-30T20:13:53;95.70;;;41.13;;
58466;SDS011;44255;49.244;7.726;2022-09-30T20:16:41;96.40;;;42.75;;
58466;SDS011;44255;49.244;7.726;2022-09-30T20:19:07;30.67;;;17.52;;
58466;SDS011;44255;49.244;7.726;2022-09-30T20:21:33;30.25;;;16.77;;
58466;SDS011;44255;49.244;7.726;2022-09-30T20:23:59;26.38;;;14.27;;
58466;SDS011;44255;49.244;7.726;2022-09-30T20:26:26;15.95;;;10.25;;
58466;SDS011;44255;49.244;7.726;2022-09-30T20:28:54;13.77;;;8.67;;
58466;SDS011;44255;49.244;7.726;2022-09-30T20:31:21;15.45;;;9.50;;
58466;SDS011;44255;49.244;7.726;2022-09-30T20:36:17;20.95;;;12.52;;
58466;SDS011;44255;49.244;7.726;2022-09-30T20:38:48;35.70;;;15.65;;
58466;SDS011;44255;49.244;7.726;2022-09-30T20:41:14;57.78;;;29.70;;
58466;SDS011;44255;49.244;7.726;2022-09-30T20:43:39;57.57;;;29.13;;
58466;SDS011;44255;49.244;7.726;2022-09-30T20:46:04;37.17;;;16.23;;
58466;SDS011;44255;49.244;7.726;2022-09-30T20:48:32;25.00;;;12.00;;
58466;SDS011;44255;49.244;7.726;2022-09-30T20:51:09;22.02;;;11.57;;
58466;SDS011;44255;49.244;7.726;2022-09-30T20:53:35;24.88;;;12.88;;
58466;SDS011;44255;49.244;7.726;2022-09-30T20:56:03;30.90;;;15.20;;
58466;SDS011;44255;49.244;7.726;2022-09-30T20:58:32;31.08;;;18.40;;
